Time;durP1;ratioP1;P1;durP2;ratioP2;P2;SDS_P1;SDS_P2;PMS_P1;PMS_P2;Temp;Humidity;BMP_temperature;BMP_pressure;BME280_temperature;BME280_humidity;BME280_pressure;Samples;Min_cycle;Max_cycle;Signal;HPM_P1;HPM_P2
2022/10/15 00:01:39;;;;;;;;;;;20.10;72.50;;;;;;4477628;32;20308;-70
2022/10/15 00:04:05;;;;;;;;;;;20.10;72.50;;;;;;4477648;32;19970;-70
2022/10/15 00:06:31;;;;;;;;;;;20.10;72.50;;;;;;4463463;32;19970;-70
2022/10/15 00:08:56;;;;;;;;;;;20.10;72.60;;;;;;4477277;32;19993;-70
2022/10/15 00:11:24;;;;;;;;;;;20.10;72.50;;;;;;4477532;32;20304;-70
2022/10/15 00:13:54;;;;;;;;;;;20.10;72.50;;;;;;4477540;32;19978;-70
2022/10/15 00:16:21;;;;;;;;;;;20.10;72.50;;;;;;4477433;32;19990;-70
2022/10/15 00:18:47;;;;;;;;;;;20.10;72.50;;;;;;4477433;32;20068;-70
2022/10/15 00:21:14;;;;;;;;;;;20.10;72.60;;;;;;4477699;32;19970;-70
2022/10/15 00:23:40;;;;;;;;;;;20.00;72.50;;;;;;4477530;32;19989;-70
2022/10/15 00:26:07;;;;;;;;;;;20.10;72.50;;;;;;4477290;32;19993;-70
2022/10/15 00:28:32;;;;;;;;;;;20.00;72.50;;;;;;4477014;32;20107;-70
2022/10/15 00:30:59;;;;;;;;;;;20.10;72.50;;;;;;4462890;32;19966;-70
2022/10/15 00:33:25;;;;;;;;;;;20.10;72.50;;;;;;4477478;32;19986;-70
2022/10/15 00:35:57;;;;;;;;;;;20.10;72.50;;;;;;4477231;32;19983;-70
2022/10/15 00:38:23;;;;;;;;;;;20.00;72.50;;;;;;4476972;32;19992;-70
2022/10/15 00:40:48;;;;;;;;;;;20.00;72.50;;;;;;4477202;32;20079;-70
2022/10/15 00:43:14;;;;;;;;;;;20.00;72.50;;;;;;4477088;32;20387;-70
2022/10/15 00:45:40;;;;;;;;;;;20.00;72.50;;;;;;4477093;32;19970;-70
2022/10/15 00:48:06;;;;;;;;;;;20.00;72.50;;;;;;4477091;32;20013;-70
2022/10/15 00:50:32;;;;;;;;;;;20.00;72.50;;;;;;4476920;32;19985;-70
2022/10/15 00:52:58;;;;;;;;;;;20.00;72.40;;;;;;4476985;32;19989;-70
2022/10/15 00:55:44;;;;;;;;;;;20.00;72.40;;;;;;4462508;32;19978;-70
2022/10/15 00:58:12;;;;;;;;;;;20.00;72.40;;;;;;4476857;32;20407;-70
2022/10/15 01:00:39;;;;;;;;;;;20.00;72.40;;;;;;4477181;32;19996;-70
2022/10/15 01:03:04;;;;;;;;;;;20.00;72.50;;;;;;4476890;32;20312;-71
2022/10/15 01:05:30;;;;;;;;;;;19.90;72.40;;;;;;4476602;32;20300;-70
2022/10/15 01:07:56;;;;;;;;;;;20.00;72.50;;;;;;4476848;32;19986;-70
2022/10/15 01:10:26;;;;;;;;;;;20.00;72.40;;;;;;4476823;32;19980;-70
2022/10/15 01:12:55;;;;;;;;;;;19.90;72.40;;;;;;4476441;32;20040;-70
2022/10/15 01:15:23;;;;;;;;;;;19.90;72.40;;;;;;4477111;32;19974;-70
2022/10/15 01:17:52;;;;;;;;;;;19.90;72.40;;;;;;4476570;32;19988;-70
2022/10/15 01:20:37;;;;;;;;;;;19.90;72.40;;;;;;4476781;32;19992;-70
2022/10/15 01:23:16;;;;;;;;;;;19.90;72.40;;;;;;4477066;32;19970;-70
2022/10/15 01:26:00;;;;;;;;;;;19.90;72.40;;;;;;4476574;32;19974;-70
2022/10/15 01:28:47;;;;;;;;;;;19.90;72.30;;;;;;4477162;32;20446;-70
2022/10/15 01:31:32;;;;;;;;;;;19.90;72.40;;;;;;4476776;32;20111;-70
2022/10/15 01:34:01;;;;;;;;;;;19.90;72.30;;;;;;4476754;32;20099;-70
2022/10/15 01:36:31;;;;;;;;;;;19.90;72.40;;;;;;4476714;32;20051;-70
2022/10/15 01:38:59;;;;;;;;;;;19.90;72.40;;;;;;4476655;32;20052;-70
2022/10/15 01:41:38;;;;;;;;;;;19.90;72.40;;;;;;4476744;32;20300;-70
2022/10/15 01:44:10;;;;;;;;;;;19.90;72.40;;;;;;4476794;32;19989;-70
2022/10/15 01:46:38;;;;;;;;;;;19.90;72.30;;;;;;4476698;32;20387;-70
2022/10/15 01:49:05;;;;;;;;;;;19.80;72.30;;;;;;4476559;32;20059;-70
2022/10/15 01:51:33;;;;;;;;;;;19.90;72.40;;;;;;4476571;32;20411;-70
2022/10/15 01:53:59;;;;;;;;;;;19.90;72.30;;;;;;4476477;32;19974;-70
2022/10/15 01:56:26;;;;;;;;;;;19.90;72.30;;;;;;4476621;32;19973;-70
2022/10/15 01:58:53;;;;;;;;;;;19.90;72.40;;;;;;4477009;32;19981;-71
2022/10/15 02:01:19;;;;;;;;;;;19.80;72.30;;;;;;4476099;32;19985;-70
2022/10/15 02:03:49;;;;;;;;;;;19.80;72.30;;;;;;4476519;32;19962;-70
2022/10/15 02:06:35;;;;;;;;;;;19.80;72.30;;;;;;4462251;32;19984;-70
2022/10/15 02:09:09;;;;;;;;;;;19.80;72.20;;;;;;4475950;32;20008;-70
2022/10/15 02:11:55;;;;;;;;;;;19.80;72.20;;;;;;4476812;32;20142;-70
2022/10/15 02:14:40;;;;;;;;;;;19.80;72.20;;;;;;4476055;32;19978;-70
2022/10/15 02:17:10;;;;;;;;;;;19.80;72.20;;;;;;4476490;32;19970;-70
2022/10/15 02:19:40;;;;;;;;;;;19.80;72.20;;;;;;4476164;32;20460;-70
2022/10/15 02:22:06;;;;;;;;;;;19.80;72.20;;;;;;4476732;32;19982;-70
2022/10/15 02:24:34;;;;;;;;;;;19.80;72.20;;;;;;4477756;32;20374;-71
2022/10/15 02:27:01;;;;;;;;;;;19.80;72.20;;;;;;4478729;32;19989;-70
2022/10/15 02:29:29;;;;;;;;;;;19.80;72.20;;;;;;4479007;32;20051;-70
2022/10/15 02:31:55;;;;;;;;;;;19.80;72.20;;;;;;4479147;32;19970;-70
2022/10/15 02:34:24;;;;;;;;;;;19.80;72.20;;;;;;4479025;32;19988;-70
2022/10/15 02:36:52;;;;;;;;;;;19.80;72.20;;;;;;4478964;32;19990;-70
2022/10/15 02:39:20;;;;;;;;;;;19.80;72.20;;;;;;4478965;32;20481;-71
2022/10/15 02:41:46;;;;;;;;;;;19.80;72.20;;;;;;4478990;32;20096;-70
2022/10/15 02:44:12;;;;;;;;;;;19.80;72.20;;;;;;4478911;32;19970;-70
2022/10/15 02:46:38;;;;;;;;;;;19.80;72.20;;;;;;4479118;32;20107;-70
2022/10/15 02:49:03;;;;;;;;;;;19.80;72.20;;;;;;4479016;32;20372;-70
2022/10/15 02:51:32;;;;;;;;;;;19.70;72.10;;;;;;4479032;32;19962;-70
2022/10/15 02:53:59;;;;;;;;;;;19.70;72.10;;;;;;4478883;32;20043;-70
2022/10/15 02:56:25;;;;;;;;;;;19.70;72.10;;;;;;4478930;32;19978;-70
2022/10/15 02:58:50;;;;;;;;;;;19.70;72.10;;;;;;4478645;32;20389;-70
2022/10/15 03:01:16;;;;;;;;;;;19.70;72.10;;;;;;4478473;32;20021;-70
2022/10/15 03:03:43;;;;;;;;;;;19.70;72.10;;;;;;4478553;32;19974;-70
2022/10/15 03:06:08;;;;;;;;;;;19.70;72.00;;;;;;4478300;32;19988;-70
2022/10/15 03:08:34;;;;;;;;;;;19.70;72.00;;;;;;4478558;32;20107;-70
2022/10/15 03:11:00;;;;;;;;;;;19.70;72.10;;;;;;4478142;32;19962;-70
2022/10/15 03:13:26;;;;;;;;;;;19.70;72.10;;;;;;4464429;32;20092;-70
2022/10/15 03:15:52;;;;;;;;;;;19.70;72.10;;;;;;4478658;32;20051;-70
2022/10/15 03:18:17;;;;;;;;;;;19.70;72.10;;;;;;4478208;32;20004;-70
2022/10/15 03:20:43;;;;;;;;;;;19.70;72.00;;;;;;4478173;32;20163;-70
2022/10/15 03:23:09;;;;;;;;;;;19.70;72.00;;;;;;4478504;32;19981;-70
2022/10/15 03:25:35;;;;;;;;;;;19.70;72.10;;;;;;4478073;32;19974;-70
2022/10/15 03:28:01;;;;;;;;;;;19.70;72.00;;;;;;4478251;32;20036;-70
2022/10/15 03:30:26;;;;;;;;;;;19.70;72.00;;;;;;4477889;32;19974;-70
2022/10/15 03:32:52;;;;;;;;;;;19.70;72.00;;;;;;4478441;32;19974;-70
2022/10/15 03:35:18;;;;;;;;;;;19.60;72.00;;;;;;4477517;32;19970;-70
2022/10/15 03:37:44;;;;;;;;;;;19.60;72.00;;;;;;4478150;32;19969;-70
2022/10/15 03:40:10;;;;;;;;;;;19.70;72.00;;;;;;4478028;32;19970;-70
2022/10/15 03:42:35;;;;;;;;;;;19.70;72.00;;;;;;4478132;32;20005;-70
2022/10/15 03:45:01;;;;;;;;;;;19.60;72.00;;;;;;4478026;32;19984;-70
2022/10/15 03:47:27;;;;;;;;;;;19.60;72.00;;;;;;4478317;32;20307;-70
2022/10/15 03:49:53;;;;;;;;;;;19.60;71.90;;;;;;4478040;32;19973;-70
2022/10/15 03:52:18;;;;;;;;;;;19.60;71.90;;;;;;4478157;32;20100;-70
2022/10/15 03:54:44;;;;;;;;;;;19.60;71.90;;;;;;4478033;32;20100;-70
2022/10/15 03:57:10;;;;;;;;;;;19.60;72.00;;;;;;4477842;32;19962;-70
2022/10/15 03:59:35;;;;;;;;;;;19.60;71.90;;;;;;4477794;32;20107;-70
2022/10/15 04:02:01;;;;;;;;;;;19.60;71.90;;;;;;4478066;32;20299;-70
2022/10/15 04:04:28;;;;;;;;;;;19.60;71.90;;;;;;4477692;32;20612;-70
2022/10/15 04:06:53;;;;;;;;;;;19.60;71.90;;;;;;4477888;32;19962;-70
2022/10/15 04:09:19;;;;;;;;;;;19.60;71.90;;;;;;4477642;32;19996;-70
2022/10/15 04:11:45;;;;;;;;;;;19.60;71.90;;;;;;4477701;32;19977;-70
2022/10/15 04:14:10;;;;;;;;;;;19.60;72.70;;;;;;4477861;32;20287;-70
2022/10/15 04:16:36;;;;;;;;;;;19.60;71.90;;;;;;4477509;32;20051;-70
2022/10/15 04:19:02;;;;;;;;;;;19.60;71.90;;;;;;4477662;32;19978;-69
2022/10/15 04:21:28;;;;;;;;;;;19.60;71.90;;;;;;4477704;32;20068;-70
2022/10/15 04:23:53;;;;;;;;;;;19.60;71.90;;;;;;4477435;32;19984;-70
2022/10/15 04:26:19;;;;;;;;;;;19.60;71.90;;;;;;4477062;32;19989;-70
2022/10/15 04:28:46;;;;;;;;;;;19.60;71.90;;;;;;4477792;32;19966;-70
2022/10/15 04:31:12;;;;;;;;;;;19.60;71.90;;;;;;4477350;32;20032;-70
2022/10/15 04:33:37;;;;;;;;;;;19.60;71.90;;;;;;4477367;32;20018;-69
2022/10/15 04:36:03;;;;;;;;;;;19.60;71.90;;;;;;4477307;32;20487;-70
2022/10/15 04:38:29;;;;;;;;;;;19.60;71.90;;;;;;4477321;32;19982;-70
2022/10/15 04:41:02;;;;;;;;;;;19.60;71.90;;;;;;4477335;32;19958;-70
2022/10/15 04:43:28;;;;;;;;;;;19.50;71.80;;;;;;4476900;32;20016;-70
2022/10/15 04:45:54;;;;;;;;;;;19.50;71.90;;;;;;4476927;32;19974;-70
2022/10/15 04:48:20;;;;;;;;;;;19.50;71.90;;;;;;4476969;32;20431;-70
2022/10/15 04:50:46;;;;;;;;;;;19.50;71.80;;;;;;4477077;32;19977;-70
2022/10/15 04:53:11;;;;;;;;;;;19.60;71.90;;;;;;4477207;32;20303;-70
2022/10/15 04:55:37;;;;;;;;;;;19.50;71.80;;;;;;4477053;32;19985;-70
2022/10/15 04:58:03;;;;;;;;;;;19.50;71.80;;;;;;4476840;32;20024;-70
2022/10/15 05:00:28;;;;;;;;;;;19.50;71.80;;;;;;4477039;32;20010;-70
2022/10/15 05:02:54;;;;;;;;;;;19.50;71.80;;;;;;4477083;32;19977;-70
2022/10/15 05:05:20;;;;;;;;;;;19.50;71.80;;;;;;4477372;32;20433;-70
2022/10/15 05:07:46;;;;;;;;;;;19.50;71.80;;;;;;4477012;32;19981;-70
2022/10/15 05:10:12;;;;;;;;;;;19.50;71.80;;;;;;4477131;32;20348;-70
2022/10/15 05:12:38;;;;;;;;;;;19.50;71.80;;;;;;4462639;32;20006;-70
2022/10/15 05:15:03;;;;;;;;;;;19.50;71.80;;;;;;4476916;32;19966;-70
2022/10/15 05:17:29;;;;;;;;;;;19.50;71.80;;;;;;4477120;32;20051;-70
2022/10/15 05:19:55;;;;;;;;;;;19.50;71.80;;;;;;4477145;32;20394;-70
2022/10/15 05:22:21;;;;;;;;;;;19.50;71.80;;;;;;4476637;32;20429;-70
2022/10/15 05:24:46;;;;;;;;;;;19.50;71.80;;;;;;4476960;32;19962;-70
2022/10/15 05:27:12;;;;;;;;;;;19.50;71.80;;;;;;4476798;32;19962;-70
2022/10/15 05:29:38;;;;;;;;;;;19.40;71.70;;;;;;4476752;32;20194;-70
2022/10/15 05:32:04;;;;;;;;;;;19.50;71.80;;;;;;4476502;32;19977;-70
2022/10/15 05:34:30;;;;;;;;;;;19.50;71.80;;;;;;4476846;32;19986;-70
2022/10/15 05:36:56;;;;;;;;;;;19.50;71.80;;;;;;4477015;32;20051;-70
2022/10/15 05:39:22;;;;;;;;;;;19.50;71.80;;;;;;4476768;32;19966;-70
2022/10/15 05:41:48;;;;;;;;;;;19.50;71.80;;;;;;4476477;32;20091;-70
2022/10/15 05:44:14;;;;;;;;;;;19.50;71.70;;;;;;4476453;32;20112;-70
2022/10/15 05:46:40;;;;;;;;;;;19.40;71.70;;;;;;4476963;32;19962;-70
2022/10/15 05:49:05;;;;;;;;;;;19.50;71.70;;;;;;4476646;32;19958;-70
2022/10/15 05:51:31;;;;;;;;;;;19.40;71.70;;;;;;4476552;32;19969;-70
2022/10/15 05:53:57;;;;;;;;;;;19.40;71.70;;;;;;4476499;32;20044;-70
2022/10/15 05:56:23;;;;;;;;;;;19.40;71.60;;;;;;4476811;32;19970;-70
2022/10/15 05:58:49;;;;;;;;;;;19.40;71.70;;;;;;4478582;32;20467;-70
2022/10/15 06:01:15;;;;;;;;;;;19.40;71.70;;;;;;4480133;32;19978;-70
2022/10/15 06:03:41;;;;;;;;;;;19.40;71.70;;;;;;4479291;32;19962;-71
2022/10/15 06:06:18;;;;;;;;;;;19.40;71.70;;;;;;4479638;32;19977;-70
2022/10/15 06:08:44;;;;;;;;;;;19.40;71.70;;;;;;4479561;32;20030;-70
2022/10/15 06:11:09;;;;;;;;;;;19.40;71.70;;;;;;4479409;32;19992;-70
2022/10/15 06:13:38;;;;;;;;;;;19.40;71.70;;;;;;4479961;32;19989;-70
2022/10/15 06:16:04;;;;;;;;;;;19.40;71.70;;;;;;4479649;32;20418;-70
2022/10/15 06:18:30;;;;;;;;;;;19.40;71.70;;;;;;4479355;32;20100;-70
2022/10/15 06:20:56;;;;;;;;;;;19.40;71.70;;;;;;4479377;32;20365;-71
2022/10/15 06:23:23;;;;;;;;;;;19.40;71.70;;;;;;4465448;32;20096;-71
2022/10/15 06:25:49;;;;;;;;;;;19.40;71.60;;;;;;4478921;32;20347;-72
2022/10/15 06:28:15;;;;;;;;;;;19.40;71.60;;;;;;4464971;32;19992;-71
2022/10/15 06:30:41;;;;;;;;;;;19.40;71.70;;;;;;4478886;32;20021;-70
2022/10/15 06:33:06;;;;;;;;;;;19.40;71.70;;;;;;4479125;32;20402;-70
2022/10/15 06:35:34;;;;;;;;;;;19.40;71.60;;;;;;4479364;32;19966;-70
2022/10/15 06:38:03;;;;;;;;;;;19.40;71.60;;;;;;4478793;32;19993;-70
2022/10/15 06:40:29;;;;;;;;;;;19.40;71.60;;;;;;4479009;32;20135;-70
2022/10/15 06:42:54;;;;;;;;;;;19.40;71.70;;;;;;4478628;32;19978;-72
2022/10/15 06:45:20;;;;;;;;;;;19.40;71.60;;;;;;4464920;32;19973;-70
2022/10/15 06:47:46;;;;;;;;;;;19.30;71.40;;;;;;4478954;32;20088;-71
2022/10/15 06:50:12;;;;;;;;;;;19.30;71.30;;;;;;4478575;32;20092;-70
2022/10/15 06:52:38;;;;;;;;;;;19.30;71.00;;;;;;4478546;32;20032;-71
2022/10/15 06:55:04;;;;;;;;;;;19.30;71.10;;;;;;4478457;32;20317;-72
2022/10/15 06:57:29;;;;;;;;;;;19.30;71.00;;;;;;4478785;32;20111;-72
2022/10/15 06:59:55;;;;;;;;;;;19.30;71.30;;;;;;4478887;32;20084;-72
2022/10/15 07:02:21;;;;;;;;;;;19.30;71.80;;;;;;4478731;32;20380;-72
2022/10/15 07:04:47;;;;;;;;;;;19.30;72.00;;;;;;4478797;32;19978;-72
2022/10/15 07:07:14;;;;;;;;;;;19.30;71.90;;;;;;4478913;32;20017;-72
2022/10/15 07:09:39;;;;;;;;;;;19.30;71.90;;;;;;4478185;32;20241;-72
2022/10/15 07:12:05;;;;;;;;;;;19.30;72.40;;;;;;4464460;32;19970;-71
2022/10/15 07:14:31;;;;;;;;;;;19.30;72.30;;;;;;4478814;32;20096;-71
2022/10/15 07:16:57;;;;;;;;;;;19.30;72.20;;;;;;4478648;32;20315;-72
2022/10/15 07:19:23;;;;;;;;;;;19.40;72.50;;;;;;4478272;32;19992;-72
2022/10/15 07:21:49;;;;;;;;;;;19.30;72.60;;;;;;4478851;32;20367;-72
2022/10/15 07:24:14;;;;;;;;;;;19.30;72.60;;;;;;4478551;32;19978;-71
2022/10/15 07:26:40;;;;;;;;;;;19.40;72.70;;;;;;4463934;32;19989;-71
2022/10/15 07:29:06;;;;;;;;;;;19.40;73.10;;;;;;4478267;32;20058;-70
2022/10/15 07:31:32;;;;;;;;;;;19.40;72.80;;;;;;4477900;32;20527;-71
2022/10/15 07:33:58;;;;;;;;;;;19.30;73.00;;;;;;4478178;32;19962;-71
2022/10/15 07:36:24;;;;;;;;;;;19.30;73.10;;;;;;4478437;32;20020;-70
2022/10/15 07:38:50;;;;;;;;;;;19.30;72.90;;;;;;4478179;32;19994;-71
2022/10/15 07:41:15;;;;;;;;;;;19.30;72.90;;;;;;4464036;32;20005;-72
2022/10/15 07:43:41;;;;;;;;;;;19.30;72.80;;;;;;4478119;32;20432;-71
2022/10/15 07:46:07;;;;;;;;;;;19.30;72.90;;;;;;4478193;32;19962;-71
2022/10/15 07:48:33;;;;;;;;;;;19.30;73.10;;;;;;4478099;32;19962;-70
2022/10/15 07:51:00;;;;;;;;;;;19.30;72.90;;;;;;4477937;32;20045;-71
2022/10/15 07:53:26;;;;;;;;;;;19.30;72.90;;;;;;4477580;32;20439;-72
2022/10/15 07:55:52;;;;;;;;;;;19.30;73.40;;;;;;4477585;32;20144;-72
2022/10/15 07:58:18;;;;;;;;;;;19.30;73.50;;;;;;4477554;32;20518;-72
2022/10/15 08:00:44;;;;;;;;;;;19.30;73.40;;;;;;4478133;32;19980;-71
2022/10/15 08:03:09;;;;;;;;;;;19.30;73.30;;;;;;4477749;32;19973;-71
2022/10/15 08:05:35;;;;;;;;;;;19.40;73.50;;;;;;4477938;32;19970;-71
2022/10/15 08:08:02;;;;;;;;;;;19.40;73.40;;;;;;4477998;32;20414;-70
2022/10/15 08:10:28;;;;;;;;;;;19.40;73.40;;;;;;4477876;32;19984;-71
2022/10/15 08:12:53;;;;;;;;;;;19.40;73.40;;;;;;4477704;32;19973;-73
2022/10/15 08:15:19;;;;;;;;;;;19.40;73.50;;;;;;4477887;32;20024;-72
2022/10/15 08:17:45;;;;;;;;;;;19.40;73.30;;;;;;4463362;32;20303;-71
2022/10/15 08:20:11;;;;;;;;;;;19.40;73.50;;;;;;4477555;32;19974;-71
2022/10/15 08:22:36;;;;;;;;;;;19.40;73.60;;;;;;4477334;32;20327;-72
2022/10/15 08:25:03;;;;;;;;;;;19.40;73.40;;;;;;4463196;32;19965;-71
2022/10/15 08:27:28;;;;;;;;;;;19.40;73.40;;;;;;4477592;32;20001;-71
2022/10/15 08:29:54;;;;;;;;;;;19.40;73.30;;;;;;4477289;32;19966;-71
2022/10/15 08:32:20;;;;;;;;;;;19.40;73.40;;;;;;4477348;32;19974;-71
2022/10/15 08:34:46;;;;;;;;;;;19.40;73.30;;;;;;4477299;32;20088;-71
2022/10/15 08:37:11;;;;;;;;;;;19.40;73.50;;;;;;4477086;32;20032;-71
2022/10/15 08:39:37;;;;;;;;;;;19.40;73.40;;;;;;4477073;32;19981;-71
2022/10/15 08:42:13;;;;;;;;;;;19.40;73.50;;;;;;4477244;32;19962;-71
2022/10/15 08:44:39;;;;;;;;;;;19.40;73.40;;;;;;4463009;32;20025;-70
2022/10/15 08:47:07;;;;;;;;;;;19.40;73.40;;;;;;4477242;32;19984;-70
2022/10/15 08:49:40;;;;;;;;;;;19.40;73.40;;;;;;4476783;32;20112;-70
2022/10/15 08:52:26;;;;;;;;;;;19.40;73.40;;;;;;4477221;32;19989;-70
2022/10/15 08:54:54;;;;;;;;;;;19.40;73.40;;;;;;4476971;32;20347;-70
2022/10/15 08:57:31;;;;;;;;;;;19.40;73.40;;;;;;4477076;32;20079;-70
2022/10/15 09:00:00;;;;;;;;;;;19.40;73.40;;;;;;4477053;32;20004;-71
2022/10/15 09:02:33;;;;;;;;;;;19.40;73.40;;;;;;4476924;32;19985;-73
2022/10/15 09:05:17;;;;;;;;;;;19.40;73.40;;;;;;4477014;32;19966;-72
2022/10/15 09:07:55;;;;;;;;;;;19.40;73.50;;;;;;4477206;32;20327;-70
2022/10/15 09:10:29;;;;;;;;;;;19.40;73.50;;;;;;4477492;32;19994;-71
2022/10/15 09:13:09;;;;;;;;;;;19.40;73.50;;;;;;4476982;32;20047;-72
2022/10/15 09:15:47;;;;;;;;;;;19.40;73.50;;;;;;4477116;32;20032;-71
2022/10/15 09:18:17;;;;;;;;;;;19.40;73.40;;;;;;4476980;32;20493;-72
2022/10/15 09:20:43;;;;;;;;;;;19.40;73.40;;;;;;4476687;32;20028;-71
2022/10/15 09:23:12;;;;;;;;;;;19.30;73.30;;;;;;4476646;32;20048;-71
2022/10/15 09:25:42;;;;;;;;;;;19.40;73.30;;;;;;4476619;32;19989;-71
2022/10/15 09:28:09;;;;;;;;;;;19.30;73.30;;;;;;4477141;32;20419;-71
2022/10/15 09:30:45;;;;;;;;;;;19.40;73.30;;;;;;4476797;32;20446;-71
2022/10/15 09:33:17;;;;;;;;;;;19.30;73.20;;;;;;4477887;32;20059;-71
2022/10/15 09:35:49;;;;;;;;;;;19.30;73.20;;;;;;4480129;32;20323;-71
2022/10/15 09:38:26;;;;;;;;;;;19.30;73.20;;;;;;4480011;32;19970;-71
2022/10/15 09:41:09;;;;;;;;;;;19.30;73.20;;;;;;4480162;32;19989;-71
2022/10/15 09:43:36;;;;;;;;;;;19.30;73.20;;;;;;4479785;32;19981;-73
2022/10/15 09:46:02;;;;;;;;;;;19.30;73.20;;;;;;4479817;32;20315;-71
2022/10/15 09:48:34;;;;;;;;;;;19.30;73.30;;;;;;4479729;32;19977;-71
2022/10/15 09:51:15;;;;;;;;;;;19.30;73.20;;;;;;4465515;32;20175;-70
2022/10/15 09:53:44;;;;;;;;;;;19.30;73.30;;;;;;4479855;32;19970;-71
2022/10/15 09:56:13;;;;;;;;;;;19.30;73.20;;;;;;4479350;32;19989;-71
2022/10/15 09:58:46;;;;;;;;;;;19.30;73.20;;;;;;4479702;32;20025;-70
2022/10/15 10:01:19;;;;;;;;;;;19.30;73.20;;;;;;4479770;32;19982;-72
2022/10/15 10:03:50;;;;;;;;;;;19.30;73.30;;;;;;4479312;32;20070;-70
2022/10/15 10:06:16;;;;;;;;;;;19.30;73.20;;;;;;4465589;32;19970;-70
2022/10/15 10:08:56;;;;;;;;;;;19.30;73.20;;;;;;4479454;32;19981;-71
2022/10/15 10:11:24;;;;;;;;;;;19.30;73.20;;;;;;4479044;32;20036;-71
2022/10/15 10:13:52;;;;;;;;;;;19.30;73.30;;;;;;4479348;32;20029;-71
2022/10/15 10:16:18;;;;;;;;;;;19.30;73.30;;;;;;4479501;32;20410;-70
2022/10/15 10:19:00;;;;;;;;;;;19.30;73.30;;;;;;4479296;32;19984;-71
2022/10/15 10:21:30;;;;;;;;;;;19.30;73.30;;;;;;4465291;32;19988;-71
2022/10/15 10:24:16;;;;;;;;;;;19.30;73.30;;;;;;4479274;32;20320;-71
2022/10/15 10:26:42;;;;;;;;;;;19.30;73.40;;;;;;4478767;32;20383;-71
2022/10/15 10:29:07;;;;;;;;;;;19.30;73.50;;;;;;4478837;32;19977;-71
2022/10/15 10:31:38;;;;;;;;;;;19.30;73.50;;;;;;4478314;32;19977;-71
2022/10/15 10:34:04;;;;;;;;;;;19.30;73.50;;;;;;4479086;32;20031;-71
2022/10/15 10:36:33;;;;;;;;;;;19.30;73.40;;;;;;4479378;32;19970;-71
2022/10/15 10:39:01;;;;;;;;;;;19.30;73.50;;;;;;4479280;32;19974;-71
2022/10/15 10:42:06;;;;;;;;;;;19.30;73.40;;;;;;4478869;32;19993;-71
2022/10/15 10:44:35;;;;;;;;;;;19.30;73.40;;;;;;4444851;32;19984;-71
2022/10/15 10:47:09;;;;;;;;;;;19.30;73.50;;;;;;4445954;32;19974;-71
2022/10/15 10:49:36;;;;;;;;;;;19.30;73.50;;;;;;4463437;32;19990;-72
2022/10/15 10:52:02;;;;;;;;;;;19.30;73.30;;;;;;4478882;32;19974;-71
2022/10/15 10:54:29;;;;;;;;;;;19.30;73.20;;;;;;4478672;32;20000;-71
2022/10/15 10:56:55;;;;;;;;;;;19.30;73.30;;;;;;4478709;32;19973;-72
2022/10/15 10:59:21;;;;;;;;;;;19.30;73.30;;;;;;4478833;32;20116;-71
2022/10/15 11:01:47;;;;;;;;;;;19.30;73.30;;;;;;4478351;32;20027;-72
2022/10/15 11:04:14;;;;;;;;;;;19.30;73.40;;;;;;4478774;32;20080;-71
2022/10/15 11:06:39;;;;;;;;;;;19.30;73.30;;;;;;4478241;32;20014;-71
2022/10/15 11:09:22;;;;;;;;;;;19.30;73.30;;;;;;4478682;32;19977;-71
2022/10/15 11:11:48;;;;;;;;;;;19.30;73.30;;;;;;4478843;32;19985;-71
2022/10/15 11:14:17;;;;;;;;;;;19.30;73.30;;;;;;4478699;32;19976;-71
2022/10/15 11:16:53;;;;;;;;;;;19.30;73.30;;;;;;4478606;32;19985;-72
2022/10/15 11:19:19;;;;;;;;;;;19.30;73.40;;;;;;4478236;32;19978;-72
2022/10/15 11:21:54;;;;;;;;;;;19.30;73.30;;;;;;4464015;32;19981;-71
2022/10/15 11:24:23;;;;;;;;;;;19.30;73.30;;;;;;4478361;32;20147;-71
2022/10/15 11:27:06;;;;;;;;;;;19.30;73.30;;;;;;4478034;32;20014;-72
2022/10/15 11:29:47;;;;;;;;;;;19.30;73.20;;;;;;4478333;32;20315;-71
2022/10/15 11:32:22;;;;;;;;;;;19.30;73.30;;;;;;4478293;32;19970;-71
2022/10/15 11:34:48;;;;;;;;;;;19.30;73.30;;;;;;4478354;32;19995;-71
2022/10/15 11:37:13;;;;;;;;;;;19.30;73.30;;;;;;4478255;32;20322;-71
2022/10/15 11:39:48;;;;;;;;;;;19.30;73.30;;;;;;4478187;32;20415;-72
2022/10/15 11:42:36;;;;;;;;;;;19.30;73.30;;;;;;4477990;32;19962;-73
2022/10/15 11:45:05;;;;;;;;;;;19.30;73.30;;;;;;4477660;32;19980;-71
2022/10/15 11:47:49;;;;;;;;;;;19.30;73.20;;;;;;4478029;32;20111;-71
2022/10/15 11:50:24;;;;;;;;;;;19.30;73.30;;;;;;4477176;32;20323;-71
2022/10/15 11:52:56;;;;;;;;;;;19.30;73.10;;;;;;4477742;32;20296;-72
2022/10/15 11:55:41;;;;;;;;;;;19.30;73.20;;;;;;4477590;32;19986;-71
2022/10/15 11:58:15;;;;;;;;;;;19.30;73.10;;;;;;4477933;32;19993;-72
2022/10/15 12:00:44;;;;;;;;;;;19.30;73.10;;;;;;4477924;32;19992;-72
2022/10/15 12:03:13;;;;;;;;;;;19.30;73.10;;;;;;4477948;32;20030;-72
2022/10/15 12:05:43;;;;;;;;;;;19.30;73.10;;;;;;4477832;32;19989;-72
2022/10/15 12:08:09;;;;;;;;;;;19.30;73.00;;;;;;4477802;32;19978;-72
2022/10/15 12:10:50;;;;;;;;;;;19.30;73.10;;;;;;4477738;32;19986;-72
2022/10/15 12:13:16;;;;;;;;;;;19.30;73.00;;;;;;4477435;32;19981;-72
2022/10/15 12:15:45;;;;;;;;;;;19.30;73.00;;;;;;4477885;32;19962;-72
2022/10/15 12:18:20;;;;;;;;;;;19.30;73.00;;;;;;4477695;32;20560;-72
2022/10/15 12:20:46;;;;;;;;;;;19.30;73.00;;;;;;4477632;32;19977;-72
2022/10/15 12:23:27;;;;;;;;;;;19.30;73.00;;;;;;4477309;32;20442;-72
2022/10/15 12:25:53;;;;;;;;;;;19.30;73.00;;;;;;4477283;32;20434;-72
2022/10/15 12:28:23;;;;;;;;;;;19.30;72.90;;;;;;4478132;32;19981;-72
2022/10/15 12:30:53;;;;;;;;;;;19.30;73.00;;;;;;4477631;32;20388;-73
2022/10/15 12:33:41;;;;;;;;;;;19.30;72.90;;;;;;4477466;32;19983;-72
2022/10/15 12:36:20;;;;;;;;;;;19.30;72.90;;;;;;4477132;32;20013;-72
2022/10/15 12:39:06;;;;;;;;;;;19.30;72.90;;;;;;4477258;32;20108;-72
2022/10/15 12:41:42;;;;;;;;;;;19.30;72.90;;;;;;4477390;32;20410;-71
2022/10/15 12:44:18;;;;;;;;;;;19.30;72.90;;;;;;4477441;32;20029;-71
2022/10/15 12:46:44;;;;;;;;;;;19.30;72.90;;;;;;4463183;32;19984;-72
2022/10/15 12:49:25;;;;;;;;;;;19.30;72.90;;;;;;4477272;32;20009;-72
2022/10/15 12:51:52;;;;;;;;;;;19.30;72.90;;;;;;4477238;32;20326;-72
2022/10/15 12:54:47;;;;;;;;;;;19.30;72.90;;;;;;4477383;32;19993;-72
2022/10/15 12:57:24;;;;;;;;;;;19.30;72.90;;;;;;4469990;32;20319;-72
2022/10/15 12:59:55;;;;;;;;;;;19.30;72.90;;;;;;4477303;32;20029;-72
2022/10/15 13:02:38;;;;;;;;;;;19.30;72.90;;;;;;4477214;32;20000;-72
2022/10/15 13:05:05;;;;;;;;;;;19.30;72.80;;;;;;4477061;32;20391;-72
2022/10/15 13:07:32;;;;;;;;;;;19.30;72.90;;;;;;4476804;32;20001;-72
2022/10/15 13:09:58;;;;;;;;;;;19.30;72.90;;;;;;4476985;32;19989;-73
2022/10/15 13:12:27;;;;;;;;;;;19.30;72.80;;;;;;4462702;32;19978;-72
2022/10/15 13:14:56;;;;;;;;;;;19.30;72.90;;;;;;4477280;32;20127;-72
2022/10/15 13:17:22;;;;;;;;;;;19.30;72.80;;;;;;4477044;32;19978;-72
2022/10/15 13:19:59;;;;;;;;;;;19.30;72.90;;;;;;4476727;32;20055;-72
2022/10/15 13:22:26;;;;;;;;;;;19.30;72.80;;;;;;4477573;32;20127;-72
2022/10/15 13:24:51;;;;;;;;;;;19.30;72.90;;;;;;4476852;32;19974;-72
2022/10/15 13:27:21;;;;;;;;;;;19.30;72.90;;;;;;4476356;32;20296;-72
2022/10/15 13:29:54;;;;;;;;;;;19.30;72.90;;;;;;4477152;32;19981;-72
2022/10/15 13:32:20;;;;;;;;;;;19.30;72.90;;;;;;4476949;32;19997;-72
2022/10/15 13:34:46;;;;;;;;;;;19.30;72.90;;;;;;4476981;32;20059;-72
2022/10/15 13:37:16;;;;;;;;;;;19.20;72.80;;;;;;4476773;32;20386;-72
2022/10/15 13:39:41;;;;;;;;;;;19.20;72.80;;;;;;4476713;32;20418;-72
2022/10/15 13:42:18;;;;;;;;;;;19.20;72.80;;;;;;4476764;32;19970;-72
2022/10/15 13:44:55;;;;;;;;;;;19.30;72.90;;;;;;4476681;32;19985;-72
2022/10/15 13:47:24;;;;;;;;;;;19.30;72.90;;;;;;4477057;32;20029;-72
2022/10/15 13:49:50;;;;;;;;;;;19.20;72.80;;;;;;4477093;32;20009;-72
2022/10/15 13:52:16;;;;;;;;;;;19.20;72.80;;;;;;4476523;32;20036;-71
2022/10/15 13:54:44;;;;;;;;;;;19.30;72.90;;;;;;4476300;32;20317;-71
2022/10/15 13:57:12;;;;;;;;;;;19.20;72.80;;;;;;4476820;32;20293;-71
2022/10/15 13:59:43;;;;;;;;;;;19.20;72.90;;;;;;4476882;32;20396;-71
2022/10/15 14:02:09;;;;;;;;;;;19.20;72.90;;;;;;4476598;32;20058;-71
2022/10/15 14:04:35;;;;;;;;;;;19.20;72.90;;;;;;4476487;32;19974;-71
2022/10/15 14:07:02;;;;;;;;;;;19.20;72.90;;;;;;4476524;32;19985;-72
2022/10/15 14:09:28;;;;;;;;;;;19.20;72.90;;;;;;4476589;32;19993;-72
2022/10/15 14:11:54;;;;;;;;;;;19.20;73.00;;;;;;4476403;32;20028;-72
2022/10/15 14:14:31;;;;;;;;;;;19.20;73.40;;;;;;4476198;32;20080;-72
2022/10/15 14:16:58;;;;;;;;;;;19.20;73.50;;;;;;4476753;32;20348;-70
2022/10/15 14:19:28;;;;;;;;;;;19.20;73.50;;;;;;4463388;32;19969;-71
2022/10/15 14:21:58;;;;;;;;;;;19.30;73.30;;;;;;4479211;32;20031;-71
2022/10/15 14:24:35;;;;;;;;;;;19.20;72.80;;;;;;4465115;32;20043;-72
2022/10/15 14:27:13;;;;;;;;;;;19.40;72.80;;;;;;4479034;32;20454;-71